sensor_id;sensor_type;location;lat;lon;timestamp;pressure;altitude;pressure_sealevel;temperature;humidity
45523;BME280;31254;51.680;5.394;2023-07-31T00:01:08;100829.91;;;16.52;80.66
45523;BME280;31254;51.680;5.394;2023-07-31T00:03:51;100798.56;;;16.38;81.05
45523;BME280;31254;51.680;5.394;2023-07-31T00:06:23;100886.22;;;16.79;81.14
45523;BME280;31254;51.680;5.394;2023-07-31T00:09:07;100925.78;;;17.01;81.09
45523;BME280;31254;51.680;5.394;2023-07-31T00:11:45;101054.38;;;17.83;81.60
45523;BME280;31254;51.680;5.394;2023-07-31T00:14:33;100988.09;;;17.47;82.08
45523;BME280;31254;51.680;5.394;2023-07-31T00:17:08;100975.38;;;17.31;81.50
45523;BME280;31254;51.680;5.394;2023-07-31T00:19:45;100815.19;;;16.44;82.01
45523;BME280;31254;51.680;5.394;2023-07-31T00:22:45;100980.78;;;17.39;82.27
45523;BME280;31254;51.680;5.394;2023-07-31T00:25:39;101089.81;;;17.86;82.78
45523;BME280;31254;51.680;5.394;2023-07-31T00:28:25;100967.66;;;17.26;82.58
45523;BME280;31254;51.680;5.394;2023-07-31T00:31:05;101067.09;;;17.84;82.45
45523;BME280;31254;51.680;5.394;2023-07-31T00:36:41;100883.66;;;16.77;82.73
45523;BME280;31254;51.680;5.394;2023-07-31T00:39:22;100843.09;;;16.56;82.54
45523;BME280;31254;51.680;5.394;2023-07-31T00:45:00;100923.31;;;16.91;82.94
45523;BME280;31254;51.680;5.394;2023-07-31T00:47:48;101067.75;;;17.86;82.83
45523;BME280;31254;51.680;5.394;2023-07-31T00:50:29;101055.03;;;17.85;83.42
45523;BME280;31254;51.680;5.394;2023-07-31T00:53:10;100869.03;;;16.77;83.17
45523;BME280;31254;51.680;5.394;2023-07-31T00:55:53;100938.91;;;17.14;83.60
45523;BME280;31254;51.680;5.394;2023-07-31T00:58:37;101043.03;;;17.78;83.28
45523;BME280;31254;51.680;5.394;2023-07-31T01:01:04;100793.34;;;16.28;82.98
45523;BME280;31254;51.680;5.394;2023-07-31T01:03:36;100953.13;;;17.32;83.11
45523;BME280;31254;51.680;5.394;2023-07-31T01:12:27;101053.09;;;17.86;82.80
45523;BME280;31254;51.680;5.394;2023-07-31T01:15:09;100929.09;;;17.11;83.08
45523;BME280;31254;51.680;5.394;2023-07-31T01:17:43;100900.50;;;16.97;82.76
45523;BME280;31254;51.680;5.394;2023-07-31T01:20:21;100785.94;;;16.29;82.65
45523;BME280;31254;51.680;5.394;2023-07-31T01:23:22;101049.69;;;17.84;83.01
45523;BME280;31254;51.680;5.394;2023-07-31T01:26:36;100908.97;;;16.96;82.98
45523;BME280;31254;51.680;5.394;2023-07-31T01:29:12;100869.22;;;16.75;82.70
45523;BME280;31254;51.680;5.394;2023-07-31T01:31:48;100893.25;;;16.81;82.43
45523;BME280;31254;51.680;5.394;2023-07-31T01:34:31;100888.59;;;16.82;82.48
45523;BME280;31254;51.680;5.394;2023-07-31T01:37:02;100783.66;;;16.17;82.20
45523;BME280;31254;51.680;5.394;2023-07-31T01:39:34;101040.47;;;17.77;82.96
45523;BME280;31254;51.680;5.394;2023-07-31T01:42:01;100938.03;;;17.13;82.60
45523;BME280;31254;51.680;5.394;2023-07-31T01:44:32;101046.84;;;17.77;82.83
45523;BME280;31254;51.680;5.394;2023-07-31T01:46:59;101031.34;;;17.76;82.71
45523;BME280;31254;51.680;5.394;2023-07-31T01:49:26;100982.41;;;17.48;82.42
45523;BME280;31254;51.680;5.394;2023-07-31T01:51:53;100994.66;;;17.46;82.71
45523;BME280;31254;51.680;5.394;2023-07-31T01:54:20;100972.25;;;17.34;82.89
45523;BME280;31254;51.680;5.394;2023-07-31T01:56:47;100904.78;;;17.00;82.75
45523;BME280;31254;51.680;5.394;2023-07-31T01:59:14;100951.31;;;17.25;83.01
45523;BME280;31254;51.680;5.394;2023-07-31T02:01:44;100979.19;;;17.45;82.89
45523;BME280;31254;51.680;5.394;2023-07-31T02:04:10;100973.16;;;17.41;83.21
45523;BME280;31254;51.680;5.394;2023-07-31T02:06:40;100899.44;;;16.98;83.07
45523;BME280;31254;51.680;5.394;2023-07-31T02:09:08;101011.84;;;17.78;82.50
45523;BME280;31254;51.680;5.394;2023-07-31T02:11:36;101012.03;;;17.76;83.21
45523;BME280;31254;51.680;5.394;2023-07-31T02:14:26;101010.59;;;17.80;82.99
45523;BME280;31254;51.680;5.394;2023-07-31T02:17:01;100806.84;;;16.53;82.84
45523;BME280;31254;51.680;5.394;2023-07-31T02:19:46;100883.88;;;16.91;82.88
45523;BME280;31254;51.680;5.394;2023-07-31T02:22:30;100750.34;;;16.27;82.67
45523;BME280;31254;51.680;5.394;2023-07-31T02:25:03;100874.47;;;17.00;82.70
45523;BME280;31254;51.680;5.394;2023-07-31T02:27:31;100989.28;;;17.74;82.93
45523;BME280;31254;51.680;5.394;2023-07-31T02:30:09;100976.47;;;17.66;82.33
45523;BME280;31254;51.680;5.394;2023-07-31T02:32:41;100993.75;;;17.75;82.67
45523;BME280;31254;51.680;5.394;2023-07-31T02:35:08;100904.00;;;17.06;83.24
45523;BME280;31254;51.680;5.394;2023-07-31T02:37:42;100756.22;;;16.24;82.94
45523;BME280;31254;51.680;5.394;2023-07-31T02:40:25;100859.44;;;16.88;82.69
45523;BME280;31254;51.680;5.394;2023-07-31T02:42:55;100816.25;;;16.73;82.24
45523;BME280;31254;51.680;5.394;2023-07-31T02:45:33;100964.00;;;17.55;82.28
45523;BME280;31254;51.680;5.394;2023-07-31T02:48:00;100981.91;;;17.60;82.72
45523;BME280;31254;51.680;5.394;2023-07-31T02:50:27;100943.06;;;17.40;82.36
45523;BME280;31254;51.680;5.394;2023-07-31T02:52:55;100977.22;;;17.60;82.56
45523;BME280;31254;51.680;5.394;2023-07-31T02:55:22;100981.44;;;17.56;82.78
45523;BME280;31254;51.680;5.394;2023-07-31T02:57:55;100978.00;;;17.54;82.80
45523;BME280;31254;51.680;5.394;2023-07-31T03:00:22;100857.25;;;16.83;82.72
45523;BME280;31254;51.680;5.394;2023-07-31T03:02:49;100970.97;;;17.51;82.00
45523;BME280;31254;51.680;5.394;2023-07-31T03:05:39;100963.75;;;17.50;82.76
45523;BME280;31254;51.680;5.394;2023-07-31T03:08:18;100974.13;;;17.48;83.06
45523;BME280;31254;51.680;5.394;2023-07-31T03:10:47;100894.41;;;17.02;82.45
45523;BME280;31254;51.680;5.394;2023-07-31T03:13:26;100736.50;;;16.05;82.04
45523;BME280;31254;51.680;5.394;2023-07-31T03:15:59;100780.63;;;16.27;82.54
45523;BME280;31254;51.680;5.394;2023-07-31T03:18:40;100761.53;;;16.11;82.21
45523;BME280;31254;51.680;5.394;2023-07-31T03:24:22;100898.13;;;16.94;82.48
45523;BME280;31254;51.680;5.394;2023-07-31T03:27:05;100974.50;;;17.45;82.51
45523;BME280;31254;51.680;5.394;2023-07-31T03:29:34;100890.72;;;16.95;82.41
45523;BME280;31254;51.680;5.394;2023-07-31T03:32:01;100862.09;;;16.81;82.13
45523;BME280;31254;51.680;5.394;2023-07-31T03:34:29;100958.06;;;17.37;82.42
45523;BME280;31254;51.680;5.394;2023-07-31T03:36:56;100832.94;;;16.57;82.37
45523;BME280;31254;51.680;5.394;2023-07-31T03:39:40;100945.31;;;17.36;81.60
45523;BME280;31254;51.680;5.394;2023-07-31T03:42:19;100952.75;;;17.35;82.05
45523;BME280;31254;51.680;5.394;2023-07-31T03:44:58;100678.28;;;15.64;81.94
45523;BME280;31254;51.680;5.394;2023-07-31T03:47:25;100783.38;;;16.42;81.80
45523;BME280;31254;51.680;5.394;2023-07-31T03:50:14;100934.03;;;17.31;82.28
45523;BME280;31254;51.680;5.394;2023-07-31T03:52:44;100942.28;;;17.31;82.39
45523;BME280;31254;51.680;5.394;2023-07-31T03:55:31;100734.13;;;16.02;82.15
45523;BME280;31254;51.680;5.394;2023-07-31T03:58:03;100683.22;;;15.68;82.11
45523;BME280;31254;51.680;5.394;2023-07-31T04:00:37;100925.34;;;17.49;81.38
45523;BME280;31254;51.680;5.394;2023-07-31T04:03:09;100684.41;;;16.04;81.09
45523;BME280;31254;51.680;5.394;2023-07-31T04:05:48;100795.03;;;16.74;81.36
45523;BME280;31254;51.680;5.394;2023-07-31T04:08:21;100929.84;;;17.35;81.75
45523;BME280;31254;51.680;5.394;2023-07-31T04:11:04;100737.75;;;16.33;81.77
45523;BME280;31254;51.680;5.394;2023-07-31T04:13:47;100764.38;;;16.32;82.05
45523;BME280;31254;51.680;5.394;2023-07-31T04:16:50;100915.06;;;17.43;81.92
45523;BME280;31254;51.680;5.394;2023-07-31T04:19:39;100867.50;;;17.19;81.35
45523;BME280;31254;51.680;5.394;2023-07-31T04:22:19;100812.31;;;16.82;81.32
45523;BME280;31254;51.680;5.394;2023-07-31T04:24:57;100854.50;;;17.13;81.13
45523;BME280;31254;51.680;5.394;2023-07-31T04:27:37;100700.91;;;16.19;81.10
45523;BME280;31254;51.680;5.394;2023-07-31T04:30:07;100818.44;;;16.93;81.36
45523;BME280;31254;51.680;5.394;2023-07-31T04:32:56;100872.63;;;17.22;81.65
45523;BME280;31254;51.680;5.394;2023-07-31T04:35:30;100857.06;;;17.14;81.36
45523;BME280;31254;51.680;5.394;2023-07-31T04:37:58;100816.13;;;16.96;81.64
45523;BME280;31254;51.680;5.394;2023-07-31T04:40:25;100807.22;;;16.94;82.01
45523;BME280;31254;51.680;5.394;2023-07-31T04:42:52;100902.22;;;17.50;82.23
45523;BME280;31254;51.680;5.394;2023-07-31T04:45:22;100818.25;;;16.94;82.10
45523;BME280;31254;51.680;5.394;2023-07-31T04:47:49;100822.09;;;17.00;82.24
45523;BME280;31254;51.680;5.394;2023-07-31T04:50:19;100864.44;;;17.29;82.28
45523;BME280;31254;51.680;5.394;2023-07-31T04:52:46;100846.03;;;17.14;82.11
45523;BME280;31254;51.680;5.394;2023-07-31T04:55:15;100773.19;;;16.72;81.60
45523;BME280;31254;51.680;5.394;2023-07-31T04:57:44;100885.88;;;17.48;82.12
45523;BME280;31254;51.680;5.394;2023-07-31T05:00:13;100891.41;;;17.48;81.95
45523;BME280;31254;51.680;5.394;2023-07-31T05:02:40;100803.84;;;16.99;81.64
45523;BME280;31254;51.680;5.394;2023-07-31T05:05:07;100870.50;;;17.39;81.76
45523;BME280;31254;51.680;5.394;2023-07-31T05:07:35;100867.09;;;17.37;82.05
45523;BME280;31254;51.680;5.394;2023-07-31T05:10:01;100889.47;;;17.49;81.93
45523;BME280;31254;51.680;5.394;2023-07-31T05:12:29;100874.84;;;17.48;82.12
45523;BME280;31254;51.680;5.394;2023-07-31T05:14:59;100868.88;;;17.45;82.10
45523;BME280;31254;51.680;5.394;2023-07-31T05:17:26;100856.69;;;17.39;82.34
45523;BME280;31254;51.680;5.394;2023-07-31T05:19:55;100817.25;;;17.17;82.60
45523;BME280;31254;51.680;5.394;2023-07-31T05:22:37;100864.19;;;17.45;82.89
45523;BME280;31254;51.680;5.394;2023-07-31T05:25:18;100711.78;;;16.57;82.54
45523;BME280;31254;51.680;5.394;2023-07-31T05:27:54;100818.09;;;17.17;82.75
45523;BME280;31254;51.680;5.394;2023-07-31T05:30:43;100590.59;;;15.84;83.06
45523;BME280;31254;51.680;5.394;2023-07-31T05:33:16;100870.63;;;17.52;83.12
45523;BME280;31254;51.680;5.394;2023-07-31T05:35:42;100622.91;;;16.12;83.49
45523;BME280;31254;51.680;5.394;2023-07-31T05:38:17;100872.34;;;17.53;83.71
45523;BME280;31254;51.680;5.394;2023-07-31T05:40:59;100862.16;;;17.54;83.69
45523;BME280;31254;51.680;5.394;2023-07-31T05:43:46;100858.56;;;17.53;83.89
45523;BME280;31254;51.680;5.394;2023-07-31T05:49:36;100554.38;;;15.80;83.70
45523;BME280;31254;51.680;5.394;2023-07-31T05:52:20;100772.47;;;17.15;84.14
45523;BME280;31254;51.680;5.394;2023-07-31T05:54:51;100671.16;;;16.59;84.58
45523;BME280;31254;51.680;5.394;2023-07-31T05:57:29;100618.25;;;16.27;84.56
45523;BME280;31254;51.680;5.394;2023-07-31T06:00:08;100836.38;;;17.62;84.73
45523;BME280;31254;51.680;5.394;2023-07-31T06:03:29;100838.09;;;17.63;84.98
45523;BME280;31254;51.680;5.394;2023-07-31T06:06:23;100745.91;;;17.07;84.68
45523;BME280;31254;51.680;5.394;2023-07-31T06:09:07;100600.88;;;16.26;85.19
45523;BME280;31254;51.680;5.394;2023-07-31T06:11:56;100516.41;;;15.76;84.78
45523;BME280;31254;51.680;5.394;2023-07-31T06:17:18;100580.97;;;16.09;85.37
45523;BME280;31254;51.680;5.394;2023-07-31T06:20:46;100803.59;;;17.52;85.57
45523;BME280;31254;51.680;5.394;2023-07-31T06:24:14;100589.88;;;16.26;85.19
45523;BME280;31254;51.680;5.394;2023-07-31T06:27:00;100623.97;;;16.47;85.02
45523;BME280;31254;51.680;5.394;2023-07-31T06:32:55;100577.16;;;16.25;85.85
45523;BME280;31254;51.680;5.394;2023-07-31T06:35:55;100578.47;;;16.30;86.08
45523;BME280;31254;51.680;5.394;2023-07-31T06:38:25;100752.78;;;17.18;87.07
45523;BME280;31254;51.680;5.394;2023-07-31T06:41:00;100672.41;;;16.78;87.21
45523;BME280;31254;51.680;5.394;2023-07-31T06:43:32;100541.41;;;16.11;87.01
45523;BME280;31254;51.680;5.394;2023-07-31T06:46:04;100714.25;;;17.25;88.58
45523;BME280;31254;51.680;5.394;2023-07-31T06:48:34;100734.22;;;17.48;90.28
45523;BME280;31254;51.680;5.394;2023-07-31T06:51:05;100723.13;;;17.42;90.81
45523;BME280;31254;51.680;5.394;2023-07-31T06:57:24;100790.13;;;17.85;92.44
45523;BME280;31254;51.680;5.394;2023-07-31T06:59:54;100693.66;;;17.21;93.08
45523;BME280;31254;51.680;5.394;2023-07-31T07:02:21;100501.03;;;15.96;94.58
45523;BME280;31254;51.680;5.394;2023-07-31T07:08:55;100591.72;;;16.84;93.48
45523;BME280;31254;51.680;5.394;2023-07-31T07:11:22;100632.38;;;16.97;94.54
45523;BME280;31254;51.680;5.394;2023-07-31T07:13:49;100723.63;;;17.52;94.29
45523;BME280;31254;51.680;5.394;2023-07-31T07:16:18;100532.06;;;16.48;95.56
45523;BME280;31254;51.680;5.394;2023-07-31T07:22:42;100523.63;;;16.50;95.66
45523;BME280;31254;51.680;5.394;2023-07-31T07:25:12;100560.88;;;16.67;95.80
45523;BME280;31254;51.680;5.394;2023-07-31T07:27:48;100744.41;;;17.76;96.31
45523;BME280;31254;51.680;5.394;2023-07-31T07:30:15;100559.25;;;16.79;95.54
45523;BME280;31254;51.680;5.394;2023-07-31T07:32:53;100543.69;;;16.65;96.17
45523;BME280;31254;51.680;5.394;2023-07-31T07:35:22;100625.94;;;17.11;96.17
45523;BME280;31254;51.680;5.394;2023-07-31T07:37:53;100566.63;;;16.72;96.80
45523;BME280;31254;51.680;5.394;2023-07-31T07:40:20;100563.22;;;16.70;96.58
45523;BME280;31254;51.680;5.394;2023-07-31T07:42:49;100520.63;;;16.44;97.58
45523;BME280;31254;51.680;5.394;2023-07-31T07:45:19;100578.16;;;16.82;97.29
45523;BME280;31254;51.680;5.394;2023-07-31T07:47:46;100773.69;;;17.99;97.12
45523;BME280;31254;51.680;5.394;2023-07-31T07:50:13;100520.41;;;16.46;97.57
45523;BME280;31254;51.680;5.394;2023-07-31T07:52:40;100610.31;;;17.18;97.32
45523;BME280;31254;51.680;5.394;2023-07-31T07:55:07;100583.94;;;17.09;96.78
45523;BME280;31254;51.680;5.394;2023-07-31T07:57:34;100644.41;;;17.39;97.25
45523;BME280;31254;51.680;5.394;2023-07-31T08:00:01;100616.09;;;17.24;96.89
45523;BME280;31254;51.680;5.394;2023-07-31T08:02:28;100571.75;;;16.97;97.04
45523;BME280;31254;51.680;5.394;2023-07-31T08:04:56;100754.34;;;17.92;97.50
45523;BME280;31254;51.680;5.394;2023-07-31T08:07:23;100758.31;;;18.11;97.43
45523;BME280;31254;51.680;5.394;2023-07-31T08:09:50;100622.69;;;17.29;97.03
45523;BME280;31254;51.680;5.394;2023-07-31T08:12:17;100708.28;;;17.93;97.58
45523;BME280;31254;51.680;5.394;2023-07-31T08:14:44;100764.31;;;18.21;97.29
45523;BME280;31254;51.680;5.394;2023-07-31T08:17:11;100555.94;;;17.06;97.53
45523;BME280;31254;51.680;5.394;2023-07-31T08:19:49;100714.19;;;17.89;97.97
45523;BME280;31254;51.680;5.394;2023-07-31T08:22:16;100706.16;;;17.95;97.21
45523;BME280;31254;51.680;5.394;2023-07-31T08:24:43;100561.03;;;17.09;96.81
45523;BME280;31254;51.680;5.394;2023-07-31T08:27:10;100594.03;;;17.24;96.25
45523;BME280;31254;51.680;5.394;2023-07-31T08:29:39;100749.47;;;18.22;96.45
45523;BME280;31254;51.680;5.394;2023-07-31T08:32:08;100538.84;;;16.89;96.55
45523;BME280;31254;51.680;5.394;2023-07-31T08:34:38;100739.84;;;18.18;96.64
45523;BME280;31254;51.680;5.394;2023-07-31T08:37:05;100750.75;;;18.26;96.01
45523;BME280;31254;51.680;5.394;2023-07-31T08:39:34;100703.50;;;18.08;95.77
45523;BME280;31254;51.680;5.394;2023-07-31T08:42:09;100665.19;;;17.92;95.28
45523;BME280;31254;51.680;5.394;2023-07-31T08:44:36;100712.41;;;18.10;96.04
45523;BME280;31254;51.680;5.394;2023-07-31T08:47:07;100747.63;;;18.36;94.98
45523;BME280;31254;51.680;5.394;2023-07-31T08:49:34;100744.41;;;18.33;94.96
45523;BME280;31254;51.680;5.394;2023-07-31T08:52:01;100578.13;;;17.26;94.45
45523;BME280;31254;51.680;5.394;2023-07-31T08:54:30;100747.84;;;18.41;94.60
45523;BME280;31254;51.680;5.394;2023-07-31T08:57:00;100662.09;;;17.80;94.46
45523;BME280;31254;51.680;5.394;2023-07-31T08:59:29;100753.16;;;18.43;94.37
45523;BME280;31254;51.680;5.394;2023-07-31T09:02:05;100743.84;;;18.44;94.31
45523;BME280;31254;51.680;5.394;2023-07-31T09:04:33;100739.75;;;18.40;93.92
45523;BME280;31254;51.680;5.394;2023-07-31T09:07:03;100715.41;;;18.15;94.19
45523;BME280;31254;51.680;5.394;2023-07-31T09:09:34;100643.81;;;17.72;94.64
45523;BME280;31254;51.680;5.394;2023-07-31T09:12:21;100696.31;;;18.14;94.25
45523;BME280;31254;51.680;5.394;2023-07-31T09:23:10;100742.41;;;18.55;93.40
45523;BME280;31254;51.680;5.394;2023-07-31T09:29:58;100709.16;;;18.35;93.96
45523;BME280;31254;51.680;5.394;2023-07-31T09:32:26;100684.69;;;18.25;93.92
45523;BME280;31254;51.680;5.394;2023-07-31T09:37:59;100681.47;;;18.21;94.77
45523;BME280;31254;51.680;5.394;2023-07-31T09:40:31;100715.03;;;18.60;94.01
45523;BME280;31254;51.680;5.394;2023-07-31T09:43:02;100719.94;;;18.64;93.54
45523;BME280;31254;51.680;5.394;2023-07-31T09:45:37;100720.53;;;18.53;94.40
45523;BME280;31254;51.680;5.394;2023-07-31T09:48:09;100593.59;;;17.83;94.52
45523;BME280;31254;51.680;5.394;2023-07-31T09:50:38;100576.31;;;17.75;94.17
45523;BME280;31254;51.680;5.394;2023-07-31T09:53:09;100726.09;;;18.67;94.05
45523;BME280;31254;51.680;5.394;2023-07-31T09:55:39;100657.31;;;18.30;94.34
45523;BME280;31254;51.680;5.394;2023-07-31T09:58:08;100716.16;;;18.79;94.54
45523;BME280;31254;51.680;5.394;2023-07-31T10:00:37;100706.16;;;18.78;94.33
45523;BME280;31254;51.680;5.394;2023-07-31T10:03:05;100693.19;;;18.78;94.06
45523;BME280;31254;51.680;5.394;2023-07-31T10:08:03;100710.94;;;19.04;94.02
45523;BME280;31254;51.680;5.394;2023-07-31T10:10:35;100637.47;;;18.61;94.10
45523;BME280;31254;51.680;5.394;2023-07-31T10:13:03;100703.47;;;19.05;93.86
45523;BME280;31254;51.680;5.394;2023-07-31T10:18:59;100650.91;;;18.78;93.03
45523;BME280;31254;51.680;5.394;2023-07-31T10:21:26;100471.72;;;17.80;92.76
45523;BME280;31254;51.680;5.394;2023-07-31T10:23:56;100630.50;;;18.79;93.34
45523;BME280;31254;51.680;5.394;2023-07-31T10:26:51;100463.47;;;17.86;92.90
45523;BME280;31254;51.680;5.394;2023-07-31T10:29:21;100583.06;;;18.55;92.90
45523;BME280;31254;51.680;5.394;2023-07-31T10:31:51;100703.13;;;19.34;92.72
45523;BME280;31254;51.680;5.394;2023-07-31T10:34:21;100673.53;;;19.15;92.60
45523;BME280;31254;51.680;5.394;2023-07-31T10:36:50;100684.81;;;19.27;92.94
45523;BME280;31254;51.680;5.394;2023-07-31T10:39:36;100666.06;;;19.09;92.78
45523;BME280;31254;51.680;5.394;2023-07-31T10:42:12;100660.56;;;19.09;92.61
45523;BME280;31254;51.680;5.394;2023-07-31T10:44:48;100713.78;;;19.44;92.32
45523;BME280;31254;51.680;5.394;2023-07-31T10:47:16;100632.47;;;18.98;92.34
45523;BME280;31254;51.680;5.394;2023-07-31T10:49:46;100676.31;;;19.35;92.04
45523;BME280;31254;51.680;5.394;2023-07-31T10:52:31;100684.59;;;19.28;92.15
45523;BME280;31254;51.680;5.394;2023-07-31T10:55:28;100580.31;;;18.69;92.29
45523;BME280;31254;51.680;5.394;2023-07-31T10:58:23;100705.03;;;19.41;92.54
45523;BME280;31254;51.680;5.394;2023-07-31T11:01:54;100477.59;;;18.05;92.37
45523;BME280;31254;51.680;5.394;2023-07-31T11:04:31;100697.16;;;19.58;92.20
45523;BME280;31254;51.680;5.394;2023-07-31T11:07:12;100690.78;;;19.64;91.88
45523;BME280;31254;51.680;5.394;2023-07-31T11:09:40;100469.97;;;18.27;91.69
45523;BME280;31254;51.680;5.394;2023-07-31T11:12:06;100683.75;;;19.48;92.43
45523;BME280;31254;51.680;5.394;2023-07-31T11:14:34;100682.50;;;19.57;91.87
45523;BME280;31254;51.680;5.394;2023-07-31T11:17:06;100661.41;;;19.43;92.50
45523;BME280;31254;51.680;5.394;2023-07-31T11:19:37;100683.13;;;19.46;92.53
45523;BME280;31254;51.680;5.394;2023-07-31T11:26:57;100680.13;;;19.67;91.95
45523;BME280;31254;51.680;5.394;2023-07-31T11:30:08;100616.97;;;19.38;91.53
45523;BME280;31254;51.680;5.394;2023-07-31T11:32:48;100550.81;;;19.03;91.62
45523;BME280;31254;51.680;5.394;2023-07-31T11:35:41;100526.16;;;18.88;90.69
45523;BME280;31254;51.680;5.394;2023-07-31T11:38:30;100508.94;;;18.79;90.94
45523;BME280;31254;51.680;5.394;2023-07-31T11:41:03;100614.19;;;19.51;90.82
45523;BME280;31254;51.680;5.394;2023-07-31T11:43:35;100693.09;;;19.94;91.27
45523;BME280;31254;51.680;5.394;2023-07-31T11:46:03;100485.31;;;18.70;90.52
45523;BME280;31254;51.680;5.394;2023-07-31T11:48:34;100464.28;;;18.62;90.84
45523;BME280;31254;51.680;5.394;2023-07-31T11:51:10;100623.06;;;19.66;90.55
45523;BME280;31254;51.680;5.394;2023-07-31T11:56:16;100602.06;;;19.52;90.25
45523;BME280;31254;51.680;5.394;2023-07-31T11:58:47;100603.53;;;19.54;90.05
45523;BME280;31254;51.680;5.394;2023-07-31T12:01:15;100642.91;;;19.77;90.02
45523;BME280;31254;51.680;5.394;2023-07-31T12:03:45;100671.84;;;19.94;89.95
45523;BME280;31254;51.680;5.394;2023-07-31T12:06:16;100451.31;;;18.56;89.97
45523;BME280;31254;51.680;5.394;2023-07-31T12:08:49;100686.53;;;19.95;90.16
45523;BME280;31254;51.680;5.394;2023-07-31T12:11:16;100465.78;;;18.64;89.93
45523;BME280;31254;51.680;5.394;2023-07-31T12:13:46;100552.72;;;19.15;89.99
45523;BME280;31254;51.680;5.394;2023-07-31T12:16:13;100688.22;;;19.96;89.93
45523;BME280;31254;51.680;5.394;2023-07-31T12:18:41;100670.16;;;19.80;90.46
45523;BME280;31254;51.680;5.394;2023-07-31T12:21:08;100598.84;;;19.42;89.88
45523;BME280;31254;51.680;5.394;2023-07-31T12:23:38;100682.91;;;19.94;89.90
45523;BME280;31254;51.680;5.394;2023-07-31T12:26:11;100668.84;;;19.96;89.75
45523;BME280;31254;51.680;5.394;2023-07-31T12:28:49;100559.72;;;19.38;90.13
45523;BME280;31254;51.680;5.394;2023-07-31T12:31:18;100457.47;;;18.78;89.72
45523;BME280;31254;51.680;5.394;2023-07-31T12:33:49;100638.19;;;19.84;90.30
45523;BME280;31254;51.680;5.394;2023-07-31T12:36:21;100660.53;;;20.02;90.56
45523;BME280;31254;51.680;5.394;2023-07-31T12:38:48;100571.81;;;19.57;90.58
45523;BME280;31254;51.680;5.394;2023-07-31T12:41:16;100558.44;;;19.47;90.70
45523;BME280;31254;51.680;5.394;2023-07-31T12:43:44;100488.94;;;19.10;90.24
45523;BME280;31254;51.680;5.394;2023-07-31T12:46:11;100618.16;;;19.95;90.63
45523;BME280;31254;51.680;5.394;2023-07-31T12:48:41;100470.00;;;19.14;90.64
45523;BME280;31254;51.680;5.394;2023-07-31T12:51:08;100495.91;;;19.33;90.46
45523;BME280;31254;51.680;5.394;2023-07-31T12:53:37;100651.53;;;20.20;90.41
45523;BME280;31254;51.680;5.394;2023-07-31T12:56:04;100451.09;;;19.04;90.61
45523;BME280;31254;51.680;5.394;2023-07-31T12:58:31;100633.38;;;20.24;90.61
45523;BME280;31254;51.680;5.394;2023-07-31T13:01:00;100476.78;;;19.31;90.54
45523;BME280;31254;51.680;5.394;2023-07-31T13:03:29;100440.91;;;19.11;90.37
45523;BME280;31254;51.680;5.394;2023-07-31T13:05:56;100477.19;;;19.35;90.47
45523;BME280;31254;51.680;5.394;2023-07-31T13:08:25;100602.38;;;20.09;90.29
45523;BME280;31254;51.680;5.394;2023-07-31T13:10:51;100633.66;;;20.09;90.82
45523;BME280;31254;51.680;5.394;2023-07-31T13:13:18;100615.56;;;20.14;91.06
45523;BME280;31254;51.680;5.394;2023-07-31T13:15:45;100618.91;;;20.22;91.07
45523;BME280;31254;51.680;5.394;2023-07-31T13:18:12;100609.34;;;20.25;90.38
45523;BME280;31254;51.680;5.394;2023-07-31T13:20:41;100607.19;;;20.27;90.43
45523;BME280;31254;51.680;5.394;2023-07-31T13:23:08;100628.47;;;20.33;90.49
45523;BME280;31254;51.680;5.394;2023-07-31T13:25:35;100615.25;;;20.35;90.53
45523;BME280;31254;51.680;5.394;2023-07-31T13:28:01;100596.09;;;20.27;90.40
45523;BME280;31254;51.680;5.394;2023-07-31T13:30:29;100527.91;;;19.94;90.45
45523;BME280;31254;51.680;5.394;2023-07-31T13:32:56;100556.53;;;20.13;90.41
45523;BME280;31254;51.680;5.394;2023-07-31T13:35:23;100563.13;;;20.19;90.54
45523;BME280;31254;51.680;5.394;2023-07-31T13:37:49;100596.22;;;20.45;90.17
45523;BME280;31254;51.680;5.394;2023-07-31T13:40:16;100534.59;;;20.12;90.48
45523;BME280;31254;51.680;5.394;2023-07-31T13:42:46;100565.41;;;20.28;90.25
45523;BME280;31254;51.680;5.394;2023-07-31T13:45:14;100577.50;;;20.41;90.19
45523;BME280;31254;51.680;5.394;2023-07-31T13:47:41;100587.63;;;20.54;90.39
45523;BME280;31254;51.680;5.394;2023-07-31T13:50:08;100602.59;;;20.53;90.52
45523;BME280;31254;51.680;5.394;2023-07-31T13:52:37;100594.78;;;20.36;90.63
45523;BME280;31254;51.680;5.394;2023-07-31T13:55:06;100570.66;;;20.43;90.23
45523;BME280;31254;51.680;5.394;2023-07-31T13:57:33;100559.41;;;20.38;90.20
45523;BME280;31254;51.680;5.394;2023-07-31T14:00:01;100571.28;;;20.45;90.26
45523;BME280;31254;51.680;5.394;2023-07-31T14:02:28;100524.38;;;20.19;90.00
45523;BME280;31254;51.680;5.394;2023-07-31T14:04:55;100547.06;;;20.34;90.21
45523;BME280;31254;51.680;5.394;2023-07-31T14:07:24;100543.94;;;20.24;89.93
45523;BME280;31254;51.680;5.394;2023-07-31T14:10:01;100584.84;;;20.60;89.76
45523;BME280;31254;51.680;5.394;2023-07-31T14:12:30;100580.03;;;20.49;89.87
45523;BME280;31254;51.680;5.394;2023-07-31T14:15:09;100428.81;;;19.58;89.78
45523;BME280;31254;51.680;5.394;2023-07-31T14:17:36;100437.94;;;19.65;89.71
45523;BME280;31254;51.680;5.394;2023-07-31T14:20:05;100523.47;;;20.25;89.53
45523;BME280;31254;51.680;5.394;2023-07-31T14:22:33;100570.63;;;20.50;89.52
45523;BME280;31254;51.680;5.394;2023-07-31T14:25:01;100554.22;;;20.49;89.78
45523;BME280;31254;51.680;5.394;2023-07-31T14:27:28;100495.44;;;20.08;89.41
45523;BME280;31254;51.680;5.394;2023-07-31T14:29:55;100401.00;;;19.46;89.86